createdAt,value
2017-11-25T00:02:12.018Z,28.33
2017-11-25T00:04:46.502Z,39.87
2017-11-25T00:07:20.628Z,29.97
2017-11-25T00:09:55.408Z,37.17
2017-11-25T00:12:30.006Z,30.83
2017-11-25T00:15:04.786Z,29.00
2017-11-25T00:17:38.913Z,35.80
2017-11-25T00:20:13.558Z,27.83
2017-11-25T00:22:47.728Z,29.80
2017-11-25T00:25:21.628Z,31.73
2017-11-25T00:27:55.616Z,28.07
2017-11-25T00:30:29.426Z,65.93
2017-11-25T00:33:03.289Z,31.13
2017-11-25T00:35:37.510Z,33.07
2017-11-25T00:38:11.255Z,36.37
2017-11-25T00:40:45.117Z,27.77
2017-11-25T00:43:18.736Z,27.17
2017-11-25T00:45:52.585Z,28.00
2017-11-25T00:48:26.391Z,29.07
2017-11-25T00:51:00.166Z,28.03
2017-11-25T00:53:34.036Z,33.83
2017-11-25T00:56:07.714Z,24.37
2017-11-25T00:58:42.257Z,32.03
2017-11-25T01:01:16.114Z,31.93
2017-11-25T01:03:50.696Z,31.23
2017-11-25T01:06:24.585Z,36.07
2017-11-25T01:08:59.207Z,28.67
2017-11-25T01:11:33.320Z,30.70
2017-11-25T01:14:07.856Z,27.53
2017-11-25T01:16:41.995Z,26.87
2017-11-25T01:19:15.739Z,29.63
2017-11-25T01:21:49.532Z,26.80
2017-11-25T01:24:24.729Z,27.07
2017-11-25T01:26:58.316Z,38.60
2017-11-25T01:29:32.605Z,33.60
2017-11-25T01:32:06.981Z,32.60
2017-11-25T01:34:40.935Z,31.10
2017-11-25T01:37:15.565Z,30.10
2017-11-25T01:39:49.610Z,29.43
2017-11-25T01:42:23.320Z,29.10
2017-11-25T01:44:57.334Z,29.73
2017-11-25T01:47:31.163Z,35.30
2017-11-25T01:50:05.405Z,34.90
2017-11-25T01:52:40.126Z,24.83
2017-11-25T01:55:15.293Z,28.00
2017-11-25T01:57:49.541Z,29.50
2017-11-25T02:00:23.547Z,32.10
2017-11-25T02:02:58.254Z,32.10
2017-11-25T02:05:32.288Z,25.60
2017-11-25T02:08:06.107Z,28.83
2017-11-25T02:10:40.463Z,27.40
2017-11-25T02:13:14.652Z,31.90
2017-11-25T02:15:48.410Z,26.17
2017-11-25T02:18:22.271Z,31.53
2017-11-25T02:20:56.898Z,30.03
2017-11-25T02:23:31.167Z,26.40
2017-11-25T02:26:05.699Z,26.33
2017-11-25T02:28:40.510Z,26.77
2017-11-25T02:31:14.467Z,27.13
2017-11-25T02:33:49.009Z,26.03
2017-11-25T02:36:23.976Z,31.00
2017-11-25T02:38:57.853Z,28.97
2017-11-25T02:41:32.510Z,30.73
2017-11-25T02:44:06.937Z,29.67
2017-11-25T02:46:40.610Z,30.77
2017-11-25T02:49:14.385Z,34.60
2017-11-25T02:51:48.153Z,32.03
2017-11-25T02:54:22.676Z,25.20
2017-11-25T02:56:56.679Z,31.80
2017-11-25T02:59:31.370Z,31.90
2017-11-25T03:02:06.552Z,29.43
2017-11-25T03:04:41.539Z,27.53
2017-11-25T03:07:15.618Z,30.80
2017-11-25T03:09:49.552Z,31.00
2017-11-25T03:12:24.194Z,33.50
2017-11-25T03:14:58.263Z,35.57
2017-11-25T03:17:32.822Z,33.80
2017-11-25T03:20:06.840Z,32.30
2017-11-25T03:22:40.785Z,30.13
2017-11-25T03:25:14.562Z,38.60
2017-11-25T03:27:48.500Z,34.43
2017-11-25T03:30:22.731Z,39.17
2017-11-25T03:32:56.508Z,37.63
2017-11-25T03:35:30.202Z,36.63
2017-11-25T03:38:04.246Z,28.37
2017-11-25T03:40:38.231Z,41.67
2017-11-25T03:43:12.022Z,40.13
2017-11-25T03:45:45.783Z,32.63
2017-11-25T03:48:19.676Z,29.80
2017-11-25T03:50:54.271Z,33.80
2017-11-25T03:53:29.168Z,30.97
2017-11-25T03:56:03.115Z,26.20
2017-11-25T03:58:37.620Z,31.53
2017-11-25T04:01:12.590Z,32.67
2017-11-25T04:03:46.708Z,34.53
2017-11-25T04:06:20.586Z,35.77
2017-11-25T04:08:54.442Z,32.00
2017-11-25T04:11:28.388Z,31.77
2017-11-25T04:14:02.811Z,31.67
2017-11-25T04:16:37.659Z,32.57
2017-11-25T04:19:11.908Z,32.80
2017-11-25T04:21:45.992Z,27.33
2017-11-25T04:24:19.695Z,32.43
2017-11-25T04:26:53.506Z,25.60
2017-11-25T04:29:27.167Z,35.30
2017-11-25T04:32:01.035Z,24.50
2017-11-25T04:34:35.425Z,30.17
2017-11-25T04:37:09.401Z,31.67
2017-11-25T04:39:43.136Z,30.93
2017-11-25T04:42:16.981Z,31.80
2017-11-25T04:44:51.519Z,30.80
2017-11-25T04:47:25.523Z,34.10
2017-11-25T04:49:59.984Z,28.20
2017-11-25T04:52:34.796Z,34.30
2017-11-25T04:55:09.487Z,28.93
2017-11-25T04:57:44.677Z,31.20
2017-11-25T05:00:28.721Z,31.20
2017-11-25T05:03:02.647Z,32.13
2017-11-25T05:05:37.163Z,33.70
2017-11-25T05:08:11.884Z,32.67
2017-11-25T05:10:46.707Z,32.63
2017-11-25T05:13:20.810Z,33.53
2017-11-25T05:15:54.769Z,37.10
2017-11-25T05:18:28.607Z,40.47
2017-11-25T05:21:03.070Z,41.10
2017-11-25T05:23:37.286Z,29.83
2017-11-25T05:26:12.108Z,34.60
2017-11-25T05:28:47.098Z,39.30
2017-11-25T05:31:21.194Z,40.40
2017-11-25T05:33:55.731Z,33.00
2017-11-25T05:36:29.953Z,30.50
2017-11-25T05:39:03.804Z,30.70
2017-11-25T05:41:37.585Z,36.57
2017-11-25T05:44:11.412Z,28.17
2017-11-25T05:46:45.344Z,26.10
2017-11-25T05:49:20.021Z,30.13
2017-11-25T05:51:54.254Z,28.13
2017-11-25T05:54:27.941Z,34.13
2017-11-25T05:57:01.836Z,29.80
2017-11-25T05:59:35.607Z,27.63
2017-11-25T06:02:09.567Z,24.70
2017-11-25T06:04:43.384Z,30.70
2017-11-25T06:07:17.869Z,30.43
2017-11-25T06:09:51.985Z,30.10
2017-11-25T06:12:25.803Z,31.80
2017-11-25T06:14:59.637Z,35.93
2017-11-25T06:17:33.244Z,26.97
2017-11-25T06:20:07.141Z,35.03
2017-11-25T06:22:41.759Z,34.23
2017-11-25T06:25:15.920Z,30.50
2017-11-25T06:27:49.988Z,27.83
2017-11-25T06:30:24.020Z,31.80
2017-11-25T06:32:58.821Z,26.80
2017-11-25T06:35:33.001Z,33.13
2017-11-25T06:38:07.161Z,46.37
2017-11-25T06:40:40.863Z,36.87
2017-11-25T06:43:14.657Z,34.80
2017-11-25T06:45:48.786Z,36.00
2017-11-25T06:48:22.545Z,37.70
2017-11-25T06:50:56.362Z,35.67
2017-11-25T06:53:30.035Z,41.83
2017-11-25T06:56:04.591Z,31.50
2017-11-25T06:58:38.767Z,31.53
2017-11-25T07:01:12.505Z,31.30
2017-11-25T07:03:46.279Z,35.53
2017-11-25T07:06:19.865Z,34.97
2017-11-25T07:08:53.868Z,37.83
2017-11-25T07:11:27.787Z,32.00
2017-11-25T07:14:01.673Z,28.43
2017-11-25T07:16:35.389Z,32.70
2017-11-25T07:19:09.249Z,34.20
2017-11-25T07:21:43.785Z,30.27
2017-11-25T07:24:17.946Z,23.40
2017-11-25T07:26:52.122Z,22.33
2017-11-25T07:29:26.448Z,21.10
2017-11-25T07:32:00.277Z,22.10
2017-11-25T07:34:34.977Z,26.33
2017-11-25T07:37:08.984Z,22.13
2017-11-25T07:39:42.883Z,18.10
2017-11-25T07:42:16.708Z,21.63
2017-11-25T07:44:50.509Z,19.40
2017-11-25T07:47:25.184Z,15.70
2017-11-25T07:50:00.241Z,22.50
2017-11-25T07:52:34.898Z,18.23
2017-11-25T07:55:09.318Z,19.13
2017-11-25T07:57:43.124Z,17.20
2017-11-25T08:00:18.417Z,22.07
2017-11-25T08:02:52.623Z,19.87
2017-11-25T08:05:26.267Z,22.70
2017-11-25T08:08:00.030Z,17.00
2017-11-25T08:10:33.675Z,18.00
2017-11-25T08:13:08.396Z,14.30
2017-11-25T08:15:43.287Z,22.43
2017-11-25T08:18:17.381Z,16.60
2017-11-25T08:20:51.151Z,30.40
2017-11-25T08:23:24.964Z,20.93
2017-11-25T08:25:59.566Z,28.93
2017-11-25T08:28:34.385Z,23.87
2017-11-25T08:31:08.543Z,27.63
2017-11-25T08:33:42.371Z,19.67
2017-11-25T08:36:16.248Z,22.70
2017-11-25T08:38:50.743Z,25.50
2017-11-25T08:41:25.591Z,22.60
2017-11-25T08:44:00.204Z,28.40
2017-11-25T08:46:35.664Z,24.93
2017-11-25T08:49:09.406Z,24.33
2017-11-25T08:51:44.090Z,33.40
2017-11-25T08:54:18.714Z,25.03
2017-11-25T08:56:52.920Z,28.40
2017-11-25T08:59:26.775Z,25.60
2017-11-25T09:02:00.641Z,21.87
2017-11-25T09:04:35.365Z,26.33
2017-11-25T09:07:10.394Z,25.80
2017-11-25T09:09:44.517Z,28.03
2017-11-25T09:12:18.392Z,24.13
2017-11-25T09:14:52.284Z,24.50
2017-11-25T09:17:25.941Z,24.73
2017-11-25T09:19:59.693Z,27.60
2017-11-25T09:22:33.318Z,25.60
2017-11-25T09:25:07.247Z,29.73
2017-11-25T09:27:40.987Z,31.70
2017-11-25T09:30:14.855Z,33.67
2017-11-25T09:32:48.487Z,28.77
2017-11-25T09:35:22.255Z,35.00
2017-11-25T09:37:56.775Z,30.17
2017-11-25T09:40:30.727Z,28.83
2017-11-25T09:43:04.545Z,28.70
2017-11-25T09:45:38.535Z,28.07
2017-11-25T09:48:12.350Z,27.70
2017-11-25T09:50:46.324Z,31.57
2017-11-25T09:53:20.860Z,27.57
2017-11-25T09:55:55.556Z,25.90
2017-11-25T09:58:29.697Z,25.67
2017-11-25T10:01:03.274Z,28.97
2017-11-25T10:03:37.221Z,26.97
2017-11-25T10:06:11.077Z,28.57
2017-11-25T10:08:45.210Z,33.37
2017-11-25T10:11:19.922Z,33.97
2017-11-25T10:13:54.667Z,34.53
2017-11-25T10:16:29.055Z,32.63
2017-11-25T10:19:02.963Z,32.40
2017-11-25T10:21:37.927Z,32.83
2017-11-25T10:24:11.835Z,35.30
2017-11-25T10:26:46.443Z,32.63
2017-11-25T10:29:21.294Z,31.60
2017-11-25T10:31:55.404Z,29.97
2017-11-25T10:34:29.869Z,30.33
2017-11-25T10:37:03.869Z,36.23
2017-11-25T10:39:37.641Z,33.80
2017-11-25T10:42:11.542Z,35.23
2017-11-25T10:44:45.118Z,45.93
2017-11-25T10:47:19.874Z,35.40
2017-11-25T10:49:53.864Z,35.57
2017-11-25T10:52:27.639Z,32.03
2017-11-25T10:55:02.007Z,34.40
2017-11-25T10:57:36.337Z,36.50
2017-11-25T11:00:10.222Z,40.20
2017-11-25T11:02:44.155Z,37.57
2017-11-25T11:05:18.611Z,37.30
2017-11-25T11:07:53.011Z,37.40
2017-11-25T11:10:28.207Z,39.10
2017-11-25T11:13:02.137Z,38.53
2017-11-25T11:15:36.624Z,40.33
2017-11-25T11:18:11.222Z,38.97
2017-11-25T11:20:44.882Z,43.30
2017-11-25T11:23:18.569Z,39.83
2017-11-25T11:25:52.436Z,42.67
2017-11-25T11:28:26.297Z,46.37
2017-11-25T11:31:00.253Z,43.90
2017-11-25T11:33:34.031Z,44.40
2017-11-25T11:36:07.942Z,44.43
2017-11-25T11:38:42.510Z,44.07
2017-11-25T11:41:17.672Z,50.30
2017-11-25T11:43:51.377Z,46.27
2017-11-25T11:46:25.152Z,51.10
2017-11-25T11:48:58.872Z,45.80
2017-11-25T11:51:32.693Z,45.80
2017-11-25T11:54:06.664Z,44.40
2017-11-25T11:56:41.735Z,45.50
2017-11-25T11:59:15.980Z,52.53
2017-11-25T12:01:49.734Z,38.00
2017-11-25T12:04:24.692Z,56.93
2017-11-25T12:06:58.801Z,41.07
2017-11-25T12:09:34.013Z,41.43
2017-11-25T12:12:08.083Z,30.50
2017-11-25T12:14:41.755Z,40.47
2017-11-25T12:17:15.573Z,32.40
2017-11-25T12:19:50.209Z,34.57
2017-11-25T12:22:24.150Z,55.93
2017-11-25T12:24:58.819Z,31.57
2017-11-25T12:27:34.699Z,31.40
2017-11-25T12:30:08.996Z,32.73
2017-11-25T12:32:42.917Z,34.97
2017-11-25T12:35:17.811Z,31.37
2017-11-25T12:37:53.534Z,32.13
2017-11-25T12:40:27.818Z,34.10
2017-11-25T12:43:01.569Z,34.87
2017-11-25T12:45:35.420Z,29.47
2017-11-25T12:48:09.881Z,27.40
2017-11-25T12:50:44.165Z,24.10
2017-11-25T12:53:17.758Z,26.07
2017-11-25T12:55:52.012Z,31.23
2017-11-25T12:58:26.018Z,27.10
2017-11-25T13:01:00.814Z,26.03
2017-11-25T13:03:34.876Z,19.93
2017-11-25T13:06:09.448Z,26.20
2017-11-25T13:08:43.448Z,22.40
2017-11-25T13:11:17.415Z,19.13
2017-11-25T13:13:52.034Z,27.33
2017-11-25T13:16:27.118Z,26.37
2017-11-25T13:19:01.027Z,27.50
2017-11-25T13:21:34.823Z,31.27
2017-11-25T13:24:08.738Z,25.77
2017-11-25T13:26:42.401Z,21.33
2017-11-25T13:29:16.234Z,18.37
2017-11-25T13:31:50.008Z,21.97
2017-11-25T13:34:24.870Z,21.57
2017-11-25T13:36:59.242Z,22.10
2017-11-25T13:39:33.996Z,22.10
2017-11-25T13:42:08.275Z,26.10
2017-11-25T13:44:43.174Z,36.57
2017-11-25T13:47:17.338Z,20.23
2017-11-25T13:49:51.348Z,17.77
2017-11-25T13:52:25.294Z,32.83
2017-11-25T13:54:59.081Z,18.10
2017-11-25T13:57:33.606Z,15.30
2017-11-25T14:00:07.639Z,19.23
2017-11-25T14:02:41.458Z,18.50
2017-11-25T14:05:15.135Z,18.23
2017-11-25T14:07:49.564Z,16.40
2017-11-25T14:10:23.704Z,19.70
2017-11-25T14:12:58.412Z,13.00
2017-11-25T14:15:33.325Z,15.03
2017-11-25T14:18:08.006Z,14.97
2017-11-25T14:20:42.914Z,16.13
2017-11-25T14:23:16.914Z,11.27
2017-11-25T14:25:50.810Z,12.00
2017-11-25T14:28:24.529Z,17.20
2017-11-25T14:30:58.475Z,14.40
2017-11-25T14:33:32.392Z,11.50
2017-11-25T14:36:06.440Z,14.50
2017-11-25T14:38:40.087Z,14.60
2017-11-25T14:41:13.865Z,15.03
2017-11-25T14:43:47.578Z,12.57
2017-11-25T14:46:21.406Z,13.87
2017-11-25T14:48:55.291Z,10.77
2017-11-25T14:51:29.087Z,11.17
2017-11-25T14:54:02.813Z,9.53
2017-11-25T14:56:36.798Z,15.40
2017-11-25T14:59:10.696Z,17.03
2017-11-25T15:01:44.922Z,12.07
2017-11-25T15:04:20.359Z,10.80
2017-11-25T15:06:55.080Z,13.90
2017-11-25T15:09:29.319Z,8.53
2017-11-25T15:12:03.077Z,10.97
2017-11-25T15:14:36.722Z,11.87
2017-11-25T15:17:10.533Z,11.87
2017-11-25T15:19:45.037Z,23.83
2017-11-25T15:22:19.973Z,13.97
2017-11-25T15:24:53.848Z,15.43
2017-11-25T15:27:27.585Z,8.67
2017-11-25T15:30:02.086Z,13.20
2017-11-25T15:32:36.119Z,13.47
2017-11-25T15:35:09.787Z,58.60
2017-11-25T15:37:44.342Z,14.73
2017-11-25T15:40:18.762Z,11.07
2017-11-25T15:42:52.527Z,19.60
2017-11-25T15:45:26.232Z,9.77
2017-11-25T15:47:59.998Z,16.30
2017-11-25T15:50:34.663Z,29.83
2017-11-25T15:53:08.731Z,13.30
2017-11-25T15:55:42.636Z,15.37
2017-11-25T15:58:16.797Z,13.03
2017-11-25T16:00:51.235Z,12.87
2017-11-25T16:03:25.782Z,10.77
2017-11-25T16:05:59.793Z,16.43
2017-11-25T16:08:35.115Z,20.57
2017-11-25T16:11:09.106Z,14.47
2017-11-25T16:13:43.649Z,12.20
2017-11-25T16:16:18.167Z,9.97
2017-11-25T16:18:52.262Z,11.00
2017-11-25T16:21:26.129Z,12.70
2017-11-25T16:24:00.627Z,13.63
2017-11-25T16:26:34.625Z,10.80
2017-11-25T16:29:08.288Z,12.33
2017-11-25T16:31:42.023Z,16.67
2017-11-25T16:34:15.826Z,13.20
2017-11-25T16:36:49.631Z,9.73
2017-11-25T16:39:23.545Z,9.23
2017-11-25T16:41:57.310Z,11.93
2017-11-25T16:44:31.899Z,11.90
2017-11-25T16:47:05.830Z,11.63
2017-11-25T16:49:39.554Z,15.93
2017-11-25T16:52:13.966Z,14.63
2017-11-25T16:54:47.787Z,10.63
2017-11-25T16:57:22.408Z,9.00
2017-11-25T16:59:57.151Z,9.60
2017-11-25T17:02:30.932Z,11.17
2017-11-25T17:05:04.838Z,13.13
2017-11-25T17:07:38.592Z,10.00
2017-11-25T17:10:12.295Z,13.43
2017-11-25T17:12:46.070Z,7.37
2017-11-25T17:15:20.627Z,11.93
2017-11-25T17:17:54.696Z,12.43
2017-11-25T17:20:28.454Z,7.73
2017-11-25T17:23:02.296Z,11.83
2017-11-25T17:25:36.062Z,10.30
2017-11-25T17:28:09.683Z,13.37
2017-11-25T17:30:44.053Z,9.37
2017-11-25T17:33:19.442Z,13.43
2017-11-25T17:35:54.731Z,13.90
2017-11-25T17:38:28.760Z,18.50
2017-11-25T17:41:03.287Z,9.43
2017-11-25T17:43:37.980Z,13.50
2017-11-25T17:46:12.822Z,6.87
2017-11-25T17:48:48.110Z,8.90
2017-11-25T17:51:22.417Z,10.07
2017-11-25T17:53:56.067Z,10.17
2017-11-25T17:56:29.722Z,11.03
2017-11-25T17:59:03.924Z,8.90
2017-11-25T18:01:38.217Z,14.80
2017-11-25T18:04:11.984Z,11.63
2017-11-25T18:06:46.284Z,9.90
2017-11-25T18:09:20.804Z,14.13
2017-11-25T18:11:55.249Z,14.33
2017-11-25T18:14:29.818Z,14.83
2017-11-25T18:17:03.957Z,14.63
2017-11-25T18:19:38.657Z,13.70
2017-11-25T18:22:13.461Z,13.80
2017-11-25T18:24:48.008Z,12.13
2017-11-25T18:27:22.594Z,19.57
2017-11-25T18:29:56.742Z,12.80
2017-11-25T18:32:30.600Z,15.60
2017-11-25T18:35:04.321Z,10.90
2017-11-25T18:37:38.126Z,11.53
2017-11-25T18:40:12.072Z,14.50
2017-11-25T18:42:46.600Z,13.50
2017-11-25T18:45:20.441Z,15.60
2017-11-25T18:47:54.251Z,14.67
2017-11-25T18:50:28.438Z,12.83
2017-11-25T18:53:02.741Z,17.80
2017-11-25T18:55:36.962Z,12.37
2017-11-25T18:58:12.097Z,15.53
2017-11-25T19:00:47.337Z,15.33
2017-11-25T19:03:21.471Z,21.07
2017-11-25T19:05:56.153Z,17.40
2017-11-25T19:08:30.658Z,19.70
2017-11-25T19:11:05.120Z,18.40
2017-11-25T19:13:39.101Z,18.50
2017-11-25T19:16:13.721Z,16.33
2017-11-25T19:18:48.596Z,17.60
2017-11-25T19:21:22.472Z,16.00
2017-11-25T19:23:56.374Z,17.27
2017-11-25T19:26:30.784Z,18.67
2017-11-25T19:29:05.206Z,22.00
2017-11-25T19:31:40.104Z,18.23
2017-11-25T19:34:15.969Z,25.27
2017-11-25T19:36:50.482Z,13.60
2017-11-25T19:39:26.182Z,19.50
2017-11-25T19:41:59.806Z,21.83
2017-11-25T19:44:34.200Z,28.00
2017-11-25T19:47:09.392Z,18.93
2017-11-25T19:49:43.682Z,24.77
2017-11-25T19:52:17.792Z,20.10
2017-11-25T19:54:52.412Z,17.43
2017-11-25T19:57:26.608Z,17.83
2017-11-25T20:00:00.656Z,22.77
2017-11-25T20:02:35.235Z,19.53
2017-11-25T20:05:10.269Z,19.37
2017-11-25T20:07:44.800Z,22.30
2017-11-25T20:10:19.907Z,20.80
2017-11-25T20:12:53.749Z,17.10
2017-11-25T20:15:27.573Z,19.20
2017-11-25T20:18:01.491Z,17.83
2017-11-25T20:20:35.703Z,21.60
2017-11-25T20:23:10.607Z,29.30
2017-11-25T20:25:45.399Z,20.27
2017-11-25T20:28:19.941Z,23.20
2017-11-25T20:30:54.210Z,19.83
2017-11-25T20:33:28.350Z,27.00
2017-11-25T20:36:03.226Z,29.27
2017-11-25T20:38:38.404Z,20.63
2017-11-25T20:41:12.777Z,19.77
2017-11-25T20:43:46.695Z,23.60
2017-11-25T20:46:20.966Z,23.83
2017-11-25T20:48:55.406Z,22.50
2017-11-25T20:51:29.407Z,18.33
2017-11-25T20:54:03.570Z,22.37
2017-11-25T20:56:37.802Z,18.67
2017-11-25T20:59:11.608Z,31.33
2017-11-25T21:01:45.714Z,25.17
2017-11-25T21:04:19.614Z,17.97
2017-11-25T21:06:54.537Z,23.07
2017-11-25T21:09:29.116Z,14.47
2017-11-25T21:12:04.065Z,18.20
2017-11-25T21:14:38.412Z,18.50
2017-11-25T21:17:13.234Z,12.67
2017-11-25T21:19:47.553Z,15.73
2017-11-25T21:22:21.207Z,14.23
2017-11-25T21:24:54.953Z,17.00
2017-11-25T21:27:29.691Z,13.30
2017-11-25T21:30:04.022Z,13.80
2017-11-25T21:32:39.141Z,13.57
2017-11-25T21:35:13.264Z,16.57
2017-11-25T21:37:47.834Z,16.80
2017-11-25T21:40:21.906Z,12.63
2017-11-25T21:42:55.504Z,29.80
2017-11-25T21:45:30.204Z,13.40
2017-11-25T21:48:04.249Z,13.40
2017-11-25T21:50:37.997Z,16.00
2017-11-25T21:53:11.592Z,14.80
2017-11-25T21:55:46.127Z,14.10
2017-11-25T21:58:20.202Z,13.40
2017-11-25T22:00:53.968Z,15.33
2017-11-25T22:03:27.728Z,15.57
2017-11-25T22:06:01.707Z,16.73
2017-11-25T22:08:35.776Z,15.00
2017-11-25T22:11:09.387Z,16.20
2017-11-25T22:13:43.151Z,12.30
2017-11-25T22:16:17.426Z,15.53
2017-11-25T22:18:51.816Z,16.67
2017-11-25T22:21:25.949Z,12.67
2017-11-25T22:24:00.214Z,25.40
2017-11-25T22:26:34.702Z,14.50
2017-11-25T22:29:08.475Z,15.30
2017-11-25T22:31:42.367Z,17.13
2017-11-25T22:34:17.129Z,14.30
2017-11-25T22:36:52.368Z,16.53
2017-11-25T22:39:27.297Z,12.47
2017-11-25T22:42:01.782Z,16.70
2017-11-25T22:44:35.790Z,19.20
2017-11-25T22:47:10.343Z,19.27
2017-11-25T22:49:45.217Z,17.00
2017-11-25T22:52:20.008Z,18.23
2017-11-25T22:54:54.275Z,15.03
2017-11-25T22:57:28.649Z,19.07
2017-11-25T23:00:02.860Z,19.03
2017-11-25T23:02:36.697Z,21.27
2017-11-25T23:05:11.247Z,16.80
2017-11-25T23:07:46.222Z,21.97
2017-11-25T23:10:20.138Z,16.50
2017-11-25T23:12:54.842Z,18.60
2017-11-25T23:15:29.468Z,18.37
2017-11-25T23:18:03.906Z,15.40
2017-11-25T23:20:38.138Z,17.57
2017-11-25T23:23:11.886Z,14.70
2017-11-25T23:25:45.747Z,13.77
2017-11-25T23:28:20.431Z,14.93
2017-11-25T23:30:55.488Z,16.03
2017-11-25T23:33:29.595Z,22.63
2017-11-25T23:36:03.462Z,14.27
2017-11-25T23:38:37.947Z,15.00
2017-11-25T23:41:14.361Z,15.30
2017-11-25T23:43:49.746Z,19.23
2017-11-25T23:46:23.863Z,15.90
2017-11-25T23:48:57.963Z,15.40
2017-11-25T23:51:31.768Z,17.30
2017-11-25T23:54:06.467Z,19.93
2017-11-25T23:56:40.612Z,13.93
2017-11-25T23:59:14.206Z,17.17
